createdAt,value
2018-12-09T00:00:35.837Z,83.39
2018-12-09T00:01:35.924Z,83.39
2018-12-09T00:02:35.813Z,83.50
2018-12-09T00:03:35.804Z,83.36
2018-12-09T00:04:35.794Z,83.81
2018-12-09T00:05:35.843Z,84.52
2018-12-09T00:06:35.786Z,84.11
2018-12-09T00:07:35.779Z,84.31
2018-12-09T00:08:35.754Z,84.31
2018-12-09T00:09:35.741Z,84.46
2018-12-09T00:10:35.730Z,84.31
2018-12-09T00:11:35.730Z,84.11
2018-12-09T00:12:35.706Z,84.22
2018-12-09T00:13:35.700Z,84.31
2018-12-09T00:14:35.719Z,84.31
2018-12-09T00:15:35.674Z,84.25
2018-12-09T00:16:35.895Z,84.46
2018-12-09T00:17:35.652Z,84.52
2018-12-09T00:18:35.642Z,84.31
2018-12-09T00:19:35.631Z,84.25
2018-12-09T00:20:35.627Z,84.42
2018-12-09T00:21:35.610Z,84.22
2018-12-09T00:22:35.612Z,84.01
2018-12-09T00:23:35.590Z,84.11
2018-12-09T00:24:35.577Z,84.22
2018-12-09T00:25:35.574Z,84.66
2018-12-09T00:26:35.560Z,84.22
2018-12-09T00:27:35.567Z,84.31
2018-12-09T00:28:35.537Z,84.97
2018-12-09T00:29:35.526Z,84.77
2018-12-09T00:30:35.514Z,85.07
2018-12-09T00:31:35.502Z,84.87
2018-12-09T00:32:35.506Z,85.48
2018-12-09T00:33:35.483Z,85.58
2018-12-09T00:34:35.473Z,85.72
2018-12-09T00:35:35.460Z,86.14
2018-12-09T00:36:35.448Z,86.24
2018-12-09T00:37:35.451Z,86.65
2018-12-09T00:38:35.430Z,86.34
2018-12-09T00:39:35.422Z,87.06
2018-12-09T00:40:35.454Z,87.16
2018-12-09T00:41:35.396Z,87.47
2018-12-09T00:42:43.251Z,88.23
2018-12-09T00:43:36.372Z,89.04
2018-12-09T00:44:35.363Z,88.94
2018-12-09T00:45:35.353Z,89.04
2018-12-09T00:46:35.345Z,89.04
2018-12-09T00:47:35.343Z,90.07
2018-12-09T00:48:35.319Z,90.37
2018-12-09T00:49:35.312Z,90.48
2018-12-09T00:50:35.302Z,89.97
2018-12-09T00:51:35.322Z,90.07
2018-12-09T00:52:35.303Z,90.58
2018-12-09T00:53:35.273Z,90.07
2018-12-09T00:54:35.264Z,89.56
2018-12-09T00:55:35.257Z,89.97
2018-12-09T00:56:35.235Z,90.37
2018-12-09T00:57:35.238Z,90.37
2018-12-09T00:58:35.214Z,90.17
2018-12-09T00:59:35.203Z,90.58
2018-12-09T01:00:35.193Z,90.58
2018-12-09T01:01:35.185Z,89.97
2018-12-09T01:02:35.185Z,90.58
2018-12-09T01:03:35.159Z,90.79
2018-12-09T01:04:35.150Z,90.99
2018-12-09T01:05:35.141Z,91.30
2018-12-09T01:06:35.128Z,91.40
2018-12-09T01:07:35.134Z,91.50
2018-12-09T01:08:35.115Z,91.09
2018-12-09T01:09:35.096Z,90.79
2018-12-09T01:10:35.109Z,90.37
2018-12-09T01:11:35.074Z,90.58
2018-12-09T01:12:35.078Z,89.97
2018-12-09T01:13:35.052Z,90.64
2018-12-09T01:14:35.047Z,90.48
2018-12-09T01:15:35.033Z,90.69
2018-12-09T01:16:35.020Z,90.58
2018-12-09T01:17:35.033Z,90.23
2018-12-09T01:18:35.000Z,90.28
2018-12-09T01:19:34.988Z,90.44
2018-12-09T01:20:34.988Z,89.15
2018-12-09T01:21:34.967Z,89.45
2018-12-09T01:22:34.970Z,89.45
2018-12-09T01:23:34.949Z,89.56
2018-12-09T01:24:34.934Z,88.94
2018-12-09T01:25:34.926Z,88.74
2018-12-09T01:26:34.915Z,89.00
2018-12-09T01:27:34.923Z,88.39
2018-12-09T01:28:34.897Z,87.77
2018-12-09T01:29:34.882Z,87.67
2018-12-09T01:30:34.871Z,87.57
2018-12-09T01:31:34.860Z,87.57
2018-12-09T01:32:34.865Z,87.67
2018-12-09T01:33:34.838Z,86.96
2018-12-09T01:34:34.830Z,85.99
2018-12-09T01:35:34.824Z,86.20
2018-12-09T01:36:34.811Z,85.99
2018-12-09T01:37:34.810Z,85.79
2018-12-09T01:38:34.785Z,85.99
2018-12-09T01:39:34.776Z,86.20
2018-12-09T01:40:34.764Z,85.58
2018-12-09T01:41:34.754Z,85.48
2018-12-09T01:42:34.762Z,85.48
2018-12-09T01:43:34.731Z,85.69
2018-12-09T01:44:34.720Z,85.28
2018-12-09T01:45:34.712Z,85.89
2018-12-09T01:46:34.700Z,86.51
2018-12-09T01:47:34.699Z,87.63
2018-12-09T01:48:34.699Z,87.57
2018-12-09T01:49:34.667Z,88.39
2018-12-09T01:50:34.656Z,87.47
2018-12-09T01:51:34.645Z,87.77
2018-12-09T01:52:34.635Z,88.18
2018-12-09T01:53:34.637Z,88.80
2018-12-09T01:54:34.621Z,89.00
2018-12-09T01:55:34.607Z,89.00
2018-12-09T01:56:34.592Z,88.43
2018-12-09T01:57:34.581Z,90.23
2018-12-09T01:58:34.585Z,90.54
2018-12-09T01:59:34.559Z,91.40
2018-12-09T02:00:34.549Z,91.82
2018-12-09T02:01:34.543Z,92.22
2018-12-09T02:02:34.528Z,92.12
2018-12-09T02:03:34.530Z,93.19
2018-12-09T02:04:34.506Z,93.29
2018-12-09T02:05:34.498Z,94.11
2018-12-09T02:06:34.490Z,94.36
2018-12-09T02:07:34.479Z,95.07
2018-12-09T02:08:34.479Z,95.49
2018-12-09T02:09:34.452Z,95.90
2018-12-09T02:10:34.443Z,95.79
2018-12-09T02:11:34.432Z,95.90
2018-12-09T02:12:34.420Z,96.10
2018-12-09T02:13:34.426Z,96.77
2018-12-09T02:14:34.399Z,96.87
2018-12-09T02:15:34.389Z,97.07
2018-12-09T02:16:34.377Z,97.17
2018-12-09T02:17:34.367Z,97.07
2018-12-09T02:18:34.370Z,97.48
2018-12-09T02:19:34.350Z,97.48
2018-12-09T02:20:34.338Z,96.87
2018-12-09T02:21:34.324Z,96.97
2018-12-09T02:22:34.316Z,97.17
2018-12-09T02:23:34.314Z,96.77
2018-12-09T02:24:34.291Z,96.87
2018-12-09T02:25:34.280Z,96.87
2018-12-09T02:26:34.270Z,96.91
2018-12-09T02:27:34.266Z,96.66
2018-12-09T02:28:34.261Z,97.17
2018-12-09T02:29:34.237Z,96.77
2018-12-09T02:30:34.229Z,95.84
2018-12-09T02:31:34.215Z,95.94
2018-12-09T02:32:34.204Z,95.53
2018-12-09T02:33:34.214Z,95.94
2018-12-09T02:34:34.184Z,95.53
2018-12-09T02:35:34.173Z,95.78
2018-12-09T02:36:34.162Z,95.43
2018-12-09T02:37:34.150Z,95.64
2018-12-09T02:38:34.154Z,96.04
2018-12-09T02:39:34.136Z,95.68
2018-12-09T02:40:34.118Z,96.15
2018-12-09T02:41:34.110Z,95.78
2018-12-09T02:42:34.096Z,95.27
2018-12-09T02:43:34.101Z,94.14
2018-12-09T02:44:34.076Z,94.45
2018-12-09T02:45:34.075Z,94.55
2018-12-09T02:46:34.057Z,95.21
2018-12-09T02:47:34.047Z,95.47
2018-12-09T02:48:34.044Z,95.31
2018-12-09T02:49:34.023Z,95.31
2018-12-09T02:50:34.010Z,95.67
2018-12-09T02:51:34.003Z,95.52
2018-12-09T02:52:33.993Z,95.93
2018-12-09T02:53:34.022Z,95.77
2018-12-09T02:54:33.969Z,96.03
2018-12-09T02:55:33.961Z,95.87
2018-12-09T02:56:34.024Z,96.23
2018-12-09T02:57:33.953Z,95.72
2018-12-09T02:58:33.942Z,95.42
2018-12-09T02:59:33.921Z,96.23
2018-12-09T03:00:33.904Z,96.55
2018-12-09T03:01:33.897Z,96.03
2018-12-09T03:02:33.888Z,95.93
2018-12-09T03:03:33.890Z,97.16
2018-12-09T03:04:33.860Z,95.93
2018-12-09T03:05:33.850Z,96.34
2018-12-09T03:06:33.842Z,95.93
2018-12-09T03:07:33.829Z,95.98
2018-12-09T03:08:33.838Z,95.52
2018-12-09T03:09:33.806Z,94.70
2018-12-09T03:10:33.796Z,94.14
2018-12-09T03:11:33.785Z,94.24
2018-12-09T03:12:33.773Z,94.04
2018-12-09T03:13:33.782Z,93.73
2018-12-09T03:14:33.752Z,91.94
2018-12-09T03:15:33.741Z,92.14
2018-12-09T03:16:33.732Z,90.09
2018-12-09T03:17:33.719Z,91.42
2018-12-09T03:18:33.722Z,91.63
2018-12-09T03:19:33.708Z,92.04
2018-12-09T03:20:33.687Z,91.99
2018-12-09T03:21:33.676Z,90.95
2018-12-09T03:22:33.665Z,89.48
2018-12-09T03:23:33.667Z,89.17
2018-12-09T03:24:33.643Z,89.31
2018-12-09T03:25:33.634Z,87.46
2018-12-09T03:26:33.624Z,87.12
2018-12-09T03:27:33.620Z,86.60
2018-12-09T03:28:33.614Z,87.84
2018-12-09T03:29:33.589Z,87.32
2018-12-09T03:30:33.579Z,85.74
2018-12-09T03:31:33.569Z,86.36
2018-12-09T03:32:33.558Z,86.77
2018-12-09T03:33:34.571Z,83.72
2018-12-09T03:34:33.540Z,85.46
2018-12-09T03:35:33.534Z,85.66
2018-12-09T03:36:33.514Z,85.77
2018-12-09T03:37:33.502Z,86.32
2018-12-09T03:38:33.505Z,86.18
2018-12-09T03:39:33.482Z,85.46
2018-12-09T03:40:33.472Z,85.97
2018-12-09T03:41:33.470Z,86.18
2018-12-09T03:42:33.450Z,84.70
2018-12-09T03:43:33.461Z,85.87
2018-12-09T03:44:33.429Z,85.87
2018-12-09T03:45:33.422Z,86.18
2018-12-09T03:46:33.425Z,86.48
2018-12-09T03:47:33.407Z,86.79
2018-12-09T03:48:33.416Z,86.79
2018-12-09T03:49:33.375Z,87.30
2018-12-09T03:50:33.373Z,86.28
2018-12-09T03:51:33.354Z,86.99
2018-12-09T03:52:33.349Z,86.90
2018-12-09T03:53:33.354Z,86.90
2018-12-09T03:54:33.327Z,86.99
2018-12-09T03:55:33.312Z,87.51
2018-12-09T03:56:33.302Z,87.92
2018-12-09T03:57:33.291Z,86.48
2018-12-09T03:58:33.292Z,86.48
2018-12-09T03:59:33.271Z,86.79
2018-12-09T04:00:33.259Z,86.69
2018-12-09T04:01:33.247Z,87.61
2018-12-09T04:02:33.240Z,83.65
2018-12-09T04:03:33.242Z,83.73
2018-12-09T04:04:33.222Z,84.63
2018-12-09T04:05:33.213Z,86.83
2018-12-09T04:06:33.199Z,88.10
2018-12-09T04:07:33.182Z,89.07
2018-12-09T04:08:33.189Z,89.73
2018-12-09T04:09:33.164Z,91.72
2018-12-09T04:10:33.150Z,91.72
2018-12-09T04:11:33.140Z,93.11
2018-12-09T04:12:33.131Z,93.93
2018-12-09T04:13:33.129Z,93.98
2018-12-09T04:14:33.108Z,93.56
2018-12-09T04:15:33.102Z,94.32
2018-12-09T04:16:33.086Z,95.50
2018-12-09T04:17:33.073Z,96.18
2018-12-09T04:18:33.082Z,96.12
2018-12-09T04:19:33.055Z,96.44
2018-12-09T04:20:33.042Z,95.92
2018-12-09T04:21:33.031Z,97.26
2018-12-09T04:22:33.023Z,96.69
2018-12-09T04:23:33.023Z,97.41
2018-12-09T04:24:32.999Z,97.51
2018-12-09T04:25:32.989Z,97.41
2018-12-09T04:26:32.992Z,97.61
2018-12-09T04:27:32.980Z,98.49
2018-12-09T04:28:32.974Z,98.38
2018-12-09T04:29:32.947Z,98.18
2018-12-09T04:30:32.938Z,98.58
2018-12-09T04:31:32.926Z,98.69
2018-12-09T04:32:32.916Z,98.90
2018-12-09T04:33:32.929Z,98.69
2018-12-09T04:34:32.905Z,98.28
2018-12-09T04:35:32.886Z,98.28
2018-12-09T04:36:32.873Z,98.49
2018-12-09T04:37:32.862Z,98.69
2018-12-09T04:38:32.865Z,98.79
2018-12-09T04:39:32.842Z,98.74
2018-12-09T04:40:32.836Z,98.79
2018-12-09T04:41:32.819Z,99.00
2018-12-09T04:42:32.814Z,99.10
2018-12-09T04:43:32.798Z,98.79
2018-12-09T04:44:32.803Z,99.10
2018-12-09T04:45:32.785Z,98.58
2018-12-09T04:46:32.767Z,98.13
2018-12-09T04:47:32.756Z,98.54
2018-12-09T04:48:32.746Z,98.23
2018-12-09T04:49:32.748Z,98.85
2018-12-09T04:50:32.724Z,98.85
2018-12-09T04:51:32.712Z,99.06
2018-12-09T04:52:32.707Z,99.10
2018-12-09T04:53:32.705Z,99.00
2018-12-09T04:54:32.703Z,99.00
2018-12-09T04:55:32.674Z,99.10
2018-12-09T04:56:32.666Z,99.21
2018-12-09T04:57:32.652Z,99.31
2018-12-09T04:58:32.644Z,99.10
2018-12-09T04:59:32.641Z,98.79
2018-12-09T05:00:32.616Z,98.84
2018-12-09T05:01:32.617Z,98.90
2018-12-09T05:02:32.597Z,99.31
2018-12-09T05:03:32.587Z,99.21
2018-12-09T05:04:32.587Z,98.49
2018-12-09T05:05:32.564Z,98.84
2018-12-09T05:06:32.561Z,99.25
2018-12-09T05:07:32.546Z,99.35
2018-12-09T05:08:32.534Z,99.25
2018-12-09T05:09:32.535Z,99.05
2018-12-09T05:10:32.513Z,99.35
2018-12-09T05:11:32.501Z,98.84
2018-12-09T05:12:32.499Z,99.25
2018-12-09T05:13:32.481Z,99.15
2018-12-09T05:14:32.483Z,99.00
2018-12-09T05:15:32.458Z,99.15
2018-12-09T05:16:32.449Z,99.00
2018-12-09T05:17:32.439Z,99.21
2018-12-09T05:18:32.436Z,98.85
2018-12-09T05:19:32.429Z,98.23
2018-12-09T05:20:32.406Z,98.44
2018-12-09T05:21:32.400Z,98.33
2018-12-09T05:22:32.385Z,97.72
2018-12-09T05:23:32.374Z,97.72
2018-12-09T05:24:32.382Z,97.20
2018-12-09T05:25:32.352Z,97.67
2018-12-09T05:26:32.341Z,97.56
2018-12-09T05:27:32.331Z,97.36
2018-12-09T05:28:32.320Z,97.36
2018-12-09T05:29:32.323Z,96.84
2018-12-09T05:30:32.308Z,97.47
2018-12-09T05:31:32.288Z,97.67
2018-12-09T05:32:32.277Z,97.61
2018-12-09T05:33:32.268Z,97.47
2018-12-09T05:34:32.269Z,97.67
2018-12-09T05:35:32.245Z,97.26
2018-12-09T05:36:32.243Z,97.56
2018-12-09T05:37:32.228Z,96.64
2018-12-09T05:38:32.214Z,96.49
2018-12-09T05:39:32.215Z,97.11
2018-12-09T05:40:32.194Z,96.08
2018-12-09T05:41:32.184Z,96.08
2018-12-09T05:42:32.173Z,96.18
2018-12-09T05:43:32.163Z,96.18
2018-12-09T05:44:32.168Z,95.15
2018-12-09T05:45:32.138Z,95.05
2018-12-09T05:46:32.131Z,93.81
2018-12-09T05:47:32.116Z,92.02
2018-12-09T05:48:32.106Z,92.02
2018-12-09T05:49:32.108Z,92.08
2018-12-09T05:50:32.095Z,91.36
2018-12-09T05:51:32.074Z,90.43
2018-12-09T05:52:32.065Z,91.46
2018-12-09T05:53:32.053Z,91.56
2018-12-09T05:54:32.055Z,90.80
2018-12-09T05:55:32.032Z,90.90
2018-12-09T05:56:32.028Z,90.49
2018-12-09T05:57:32.010Z,91.11
2018-12-09T05:58:32.000Z,90.24
2018-12-09T05:59:32.003Z,90.28
2018-12-09T06:00:31.981Z,88.90
2018-12-09T06:01:31.970Z,89.42
2018-12-09T06:02:31.967Z,88.39
2018-12-09T06:03:31.945Z,89.01
2018-12-09T06:04:31.935Z,88.59
2018-12-09T06:05:31.936Z,88.76
2018-12-09T06:06:31.916Z,89.31
2018-12-09T06:07:31.904Z,88.90
2018-12-09T06:08:31.908Z,89.62
2018-12-09T06:09:31.882Z,90.14
2018-12-09T06:10:31.885Z,89.07
2018-12-09T06:11:31.861Z,89.01
2018-12-09T06:12:31.851Z,89.17
2018-12-09T06:13:31.840Z,89.07
2018-12-09T06:14:31.833Z,89.58
2018-12-09T06:15:31.833Z,89.83
2018-12-09T06:16:31.811Z,89.62
2018-12-09T06:17:31.797Z,90.66
2018-12-09T06:18:31.786Z,91.27
2018-12-09T06:19:31.776Z,87.71
2018-12-09T06:20:31.793Z,88.80
2018-12-09T06:21:31.762Z,87.98
2018-12-09T06:22:31.746Z,89.28
2018-12-09T06:23:31.735Z,91.06
2018-12-09T06:24:31.722Z,89.62
2018-12-09T06:25:31.725Z,89.42
2018-12-09T06:26:31.708Z,89.83
2018-12-09T06:27:31.696Z,89.97
2018-12-09T06:28:31.680Z,89.62
2018-12-09T06:29:31.671Z,89.25
2018-12-09T06:30:31.670Z,88.49
2018-12-09T06:31:31.649Z,88.39
2018-12-09T06:32:31.643Z,88.29
2018-12-09T06:33:31.634Z,87.98
2018-12-09T06:34:31.617Z,88.70
2018-12-09T06:35:31.619Z,87.46
2018-12-09T06:36:31.596Z,87.32
2018-12-09T06:37:31.583Z,87.57
2018-12-09T06:38:31.589Z,87.42
2018-12-09T06:39:31.561Z,87.12
2018-12-09T06:40:31.568Z,87.12
2018-12-09T06:41:31.543Z,88.35
2018-12-09T06:42:31.529Z,87.42
2018-12-09T06:43:31.520Z,89.07
2018-12-09T06:44:31.521Z,87.67
2018-12-09T06:45:31.511Z,87.26
2018-12-09T06:46:31.488Z,88.29
2018-12-09T06:47:31.477Z,87.77
2018-12-09T06:48:31.467Z,89.11
2018-12-09T06:49:31.455Z,88.49
2018-12-09T06:50:31.548Z,87.42
2018-12-09T06:51:31.436Z,88.18
2018-12-09T06:52:31.425Z,87.05
2018-12-09T06:53:31.413Z,85.82
2018-12-09T06:54:31.403Z,86.40
2018-12-09T06:55:31.410Z,85.51
2018-12-09T06:56:31.390Z,85.47
2018-12-09T06:57:31.375Z,86.64
2018-12-09T06:58:31.363Z,85.51
2018-12-09T06:59:31.351Z,85.16
2018-12-09T07:00:31.353Z,84.64
2018-12-09T07:01:31.330Z,83.83
2018-12-09T07:02:31.324Z,85.06
2018-12-09T07:03:31.308Z,83.62
2018-12-09T07:04:31.295Z,83.72
2018-12-09T07:05:31.298Z,84.75
2018-12-09T07:06:31.274Z,84.95
2018-12-09T07:07:31.265Z,85.51
2018-12-09T07:08:31.258Z,85.51
2018-12-09T07:09:31.247Z,85.92
2018-12-09T07:10:31.244Z,84.79
2018-12-09T07:11:31.222Z,84.89
2018-12-09T07:12:31.215Z,83.92
2018-12-09T07:13:31.200Z,84.09
2018-12-09T07:14:31.196Z,84.61
2018-12-09T07:15:31.198Z,83.78
2018-12-09T07:16:31.177Z,83.58
2018-12-09T07:17:31.165Z,83.58
2018-12-09T07:18:31.146Z,83.06
2018-12-09T07:19:31.138Z,83.48
2018-12-09T07:20:31.138Z,82.65
2018-12-09T07:21:31.116Z,82.34
2018-12-09T07:22:31.113Z,82.24
2018-12-09T07:23:31.094Z,81.38
2018-12-09T07:24:31.083Z,82.45
2018-12-09T07:25:31.086Z,81.38
2018-12-09T07:26:31.062Z,81.48
2018-12-09T07:27:31.054Z,81.42
2018-12-09T07:28:31.045Z,82.96
2018-12-09T07:29:31.030Z,83.06
2018-12-09T07:30:31.034Z,82.86
2018-12-09T07:31:31.009Z,83.37
2018-12-09T07:32:30.999Z,82.76
2018-12-09T07:33:30.987Z,83.58
2018-12-09T07:34:30.989Z,82.86
2018-12-09T07:35:30.983Z,82.04
2018-12-09T07:36:30.956Z,82.00
2018-12-09T07:37:30.945Z,83.06
2018-12-09T07:38:30.937Z,82.65
2018-12-09T07:39:30.928Z,83.17
2018-12-09T07:40:30.950Z,83.48
2018-12-09T07:41:30.904Z,83.06
2018-12-09T07:42:30.896Z,83.37
2018-12-09T07:43:30.883Z,82.34
2018-12-09T07:44:30.873Z,82.31
2018-12-09T07:45:30.888Z,83.06
2018-12-09T07:46:30.868Z,83.89
2018-12-09T07:47:30.841Z,83.58
2018-12-09T07:48:30.830Z,84.20
2018-12-09T07:49:30.819Z,83.99
2018-12-09T07:50:30.813Z,84.20
2018-12-09T07:51:30.812Z,83.78
2018-12-09T07:52:30.792Z,84.30
2018-12-09T07:53:30.778Z,84.20
2018-12-09T07:54:30.768Z,84.20
2018-12-09T07:55:30.763Z,84.61
2018-12-09T07:56:30.763Z,84.91
2018-12-09T07:57:30.741Z,83.89
2018-12-09T07:58:30.724Z,83.99
2018-12-09T07:59:30.725Z,83.27
2018-12-09T08:00:30.709Z,83.48
2018-12-09T08:01:30.710Z,82.34
2018-12-09T08:02:30.682Z,83.06
2018-12-09T08:03:30.683Z,82.86
2018-12-09T08:04:30.662Z,83.27
2018-12-09T08:05:30.657Z,83.58
2018-12-09T08:06:30.653Z,83.68
2018-12-09T08:07:30.631Z,84.71
2018-12-09T08:08:30.619Z,84.81
2018-12-09T08:09:30.611Z,84.71
2018-12-09T08:10:30.600Z,83.99
2018-12-09T08:11:30.606Z,83.78
2018-12-09T08:12:30.580Z,84.09
2018-12-09T08:13:30.581Z,83.17
2018-12-09T08:14:30.557Z,83.23
2018-12-09T08:15:30.550Z,83.33
2018-12-09T08:16:30.548Z,83.33
2018-12-09T08:17:30.527Z,82.62
2018-12-09T08:18:30.513Z,83.27
2018-12-09T08:19:30.511Z,83.23
2018-12-09T08:20:30.492Z,82.41
2018-12-09T08:21:30.495Z,82.10
2018-12-09T08:22:30.473Z,81.59
2018-12-09T08:23:30.460Z,81.79
2018-12-09T08:24:30.452Z,81.59
2018-12-09T08:25:30.448Z,81.18
2018-12-09T08:26:30.447Z,80.66
2018-12-09T08:27:30.426Z,81.34
2018-12-09T08:28:30.409Z,81.24
2018-12-09T08:29:30.397Z,80.46
2018-12-09T08:30:30.387Z,80.66
2018-12-09T08:31:30.389Z,80.66
2018-12-09T08:32:30.370Z,80.63
2018-12-09T08:33:30.361Z,79.80
2018-12-09T08:34:30.363Z,80.73
2018-12-09T08:35:30.334Z,81.07
2018-12-09T08:36:30.337Z,80.97
2018-12-09T08:37:30.313Z,81.38
2018-12-09T08:38:30.303Z,80.97
2018-12-09T08:39:30.294Z,80.21
2018-12-09T08:40:30.290Z,80.77
2018-12-09T08:41:30.283Z,80.25
2018-12-09T08:42:30.260Z,80.52
2018-12-09T08:43:30.249Z,80.32
2018-12-09T08:44:30.240Z,80.73
2018-12-09T08:45:30.230Z,80.21
2018-12-09T08:46:30.242Z,80.21
2018-12-09T08:47:30.216Z,80.32
2018-12-09T08:48:30.209Z,79.91
2018-12-09T08:49:30.186Z,79.39
2018-12-09T08:50:30.175Z,79.80
2018-12-09T08:51:30.181Z,79.39
2018-12-09T08:52:30.154Z,78.98
2018-12-09T08:53:30.144Z,78.36
2018-12-09T08:54:30.136Z,78.06
2018-12-09T08:55:30.130Z,77.75
2018-12-09T08:56:30.129Z,78.27
2018-12-09T08:57:30.102Z,78.88
2018-12-09T08:58:30.091Z,78.64
2018-12-09T08:59:30.082Z,78.88
2018-12-09T09:00:30.074Z,78.43
2018-12-09T09:01:30.079Z,79.25
2018-12-09T09:02:30.057Z,79.39
2018-12-09T09:03:30.038Z,78.57
2018-12-09T09:04:30.029Z,78.94
2018-12-09T09:05:30.018Z,79.66
2018-12-09T09:06:30.020Z,78.88
2018-12-09T09:07:29.995Z,78.53
2018-12-09T09:08:29.998Z,78.88
2018-12-09T09:09:29.974Z,78.78
2018-12-09T09:10:29.965Z,78.88
2018-12-09T09:11:29.968Z,79.19
2018-12-09T09:12:29.942Z,79.05
2018-12-09T09:13:29.932Z,79.36
2018-12-09T09:14:29.932Z,79.36
2018-12-09T09:15:29.910Z,79.56
2018-12-09T09:16:29.913Z,79.25
2018-12-09T09:17:29.892Z,79.70
2018-12-09T09:18:29.881Z,78.85
2018-12-09T09:19:29.871Z,78.85
2018-12-09T09:20:29.863Z,79.05
2018-12-09T09:21:29.864Z,78.43
2018-12-09T09:22:29.838Z,78.85
2018-12-09T09:23:29.853Z,78.33
2018-12-09T09:24:29.821Z,77.92
2018-12-09T09:25:29.812Z,77.61
2018-12-09T09:26:29.818Z,78.64
2018-12-09T09:27:29.783Z,78.85
2018-12-09T09:28:29.775Z,78.85
2018-12-09T09:29:29.769Z,78.94
2018-12-09T09:30:29.754Z,79.25
2018-12-09T09:31:29.759Z,79.15
2018-12-09T09:32:29.731Z,78.94
2018-12-09T09:33:29.722Z,78.64
2018-12-09T09:34:29.719Z,78.94
2018-12-09T09:35:29.700Z,79.63
2018-12-09T09:36:29.703Z,78.70
2018-12-09T09:37:29.681Z,79.42
2018-12-09T09:38:29.666Z,78.29
2018-12-09T09:39:29.658Z,78.19
2018-12-09T09:40:29.654Z,77.98
2018-12-09T09:41:29.652Z,79.01
2018-12-09T09:42:29.627Z,79.22
2018-12-09T09:43:29.622Z,78.50
2018-12-09T09:44:29.602Z,79.52
2018-12-09T09:45:29.591Z,78.91
2018-12-09T09:46:29.593Z,78.70
2018-12-09T09:47:29.571Z,79.11
2018-12-09T09:48:29.560Z,78.81
2018-12-09T09:49:29.556Z,78.56
2018-12-09T09:50:29.544Z,79.28
2018-12-09T09:51:29.539Z,79.38
2018-12-09T09:52:29.516Z,78.46
2018-12-09T09:53:29.504Z,78.46
2018-12-09T09:54:29.495Z,78.16
2018-12-09T09:55:29.484Z,78.16
2018-12-09T09:56:29.492Z,79.08
2018-12-09T09:57:29.478Z,79.18
2018-12-09T09:58:29.453Z,79.49
2018-12-09T09:59:29.442Z,79.83
2018-12-09T10:00:29.431Z,80.24
2018-12-09T10:01:29.447Z,79.93
2018-12-09T10:02:29.408Z,79.52
2018-12-09T10:03:29.399Z,80.04
2018-12-09T10:04:29.387Z,79.83
2018-12-09T10:05:29.376Z,79.52
2018-12-09T10:06:29.371Z,79.01
2018-12-09T10:07:29.367Z,79.11
2018-12-09T10:08:29.343Z,79.52
2018-12-09T10:09:29.343Z,79.22
2018-12-09T10:10:29.326Z,79.63
2018-12-09T10:11:29.315Z,79.42
2018-12-09T10:12:29.316Z,79.63
2018-12-09T10:13:29.289Z,79.32
2018-12-09T10:14:29.281Z,79.32
2018-12-09T10:15:29.269Z,79.52
2018-12-09T10:16:29.264Z,79.42
2018-12-09T10:17:29.275Z,79.22
2018-12-09T10:18:29.235Z,79.52
2018-12-09T10:19:29.225Z,79.32
2018-12-09T10:20:29.214Z,79.52
2018-12-09T10:21:29.202Z,79.73
2018-12-09T10:22:29.205Z,79.73
2018-12-09T10:23:29.184Z,79.83
2018-12-09T10:24:29.171Z,79.83
2018-12-09T10:25:29.159Z,79.87
2018-12-09T10:26:36.210Z,79.63
2018-12-09T10:27:30.191Z,80.28
2018-12-09T10:28:29.127Z,80.35
2018-12-09T10:29:29.128Z,80.18
2018-12-09T10:30:29.110Z,80.18
2018-12-09T10:31:29.097Z,80.07
2018-12-09T10:32:29.098Z,80.79
2018-12-09T10:33:29.074Z,82.33
2018-12-09T10:34:29.068Z,84.74
2018-12-09T10:35:29.059Z,85.39
2018-12-09T10:36:29.138Z,85.80
2018-12-09T10:37:29.042Z,86.97
2018-12-09T10:38:29.020Z,86.97
2018-12-09T10:39:29.008Z,87.90
2018-12-09T10:40:28.998Z,89.03
2018-12-09T10:41:28.989Z,89.28
2018-12-09T10:42:28.995Z,89.89
2018-12-09T10:43:28.982Z,90.81
2018-12-09T10:44:28.955Z,90.61
2018-12-09T10:45:28.945Z,90.30
2018-12-09T10:46:28.935Z,91.85
2018-12-09T10:47:28.936Z,90.92
2018-12-09T10:48:28.913Z,90.72
2018-12-09T10:49:28.906Z,90.92
2018-12-09T10:50:28.898Z,91.02
2018-12-09T10:51:28.888Z,91.85
2018-12-09T10:52:28.884Z,92.05
2018-12-09T10:53:28.860Z,92.50
2018-12-09T10:54:28.852Z,92.30
2018-12-09T10:55:28.841Z,91.85
2018-12-09T10:56:28.830Z,91.95
2018-12-09T10:57:28.837Z,90.81
2018-12-09T10:58:28.814Z,89.95
2018-12-09T10:59:28.803Z,90.92
2018-12-09T11:00:28.787Z,90.47
2018-12-09T11:01:28.776Z,91.02
2018-12-09T11:02:28.779Z,89.95
2018-12-09T11:03:28.755Z,90.30
2018-12-09T11:04:28.746Z,90.26
2018-12-09T11:05:28.741Z,90.16
2018-12-09T11:06:28.724Z,90.57
2018-12-09T11:07:28.726Z,91.02
2018-12-09T11:08:28.702Z,92.05
2018-12-09T11:09:28.691Z,91.95
2018-12-09T11:10:28.682Z,91.74
2018-12-09T11:11:28.680Z,92.25
2018-12-09T11:12:28.675Z,91.85
2018-12-09T11:13:28.649Z,91.13
2018-12-09T11:14:28.639Z,90.47
2018-12-09T11:15:28.630Z,91.64
2018-12-09T11:16:28.619Z,92.52
2018-12-09T11:17:28.622Z,92.11
2018-12-09T11:18:28.597Z,92.11
2018-12-09T11:19:28.592Z,91.80
2018-12-09T11:20:28.582Z,92.21
2018-12-09T11:21:30.821Z,90.26
2018-12-09T11:22:28.569Z,90.78
2018-12-09T11:23:28.545Z,90.67
2018-12-09T11:24:28.535Z,90.78
2018-12-09T11:25:28.523Z,91.29
2018-12-09T11:26:28.518Z,91.29
2018-12-09T11:27:28.515Z,90.88
2018-12-09T11:28:28.492Z,90.36
2018-12-09T11:29:28.483Z,91.04
2018-12-09T11:30:28.470Z,89.40
2018-12-09T11:31:28.460Z,90.63
2018-12-09T11:32:28.482Z,90.22
2018-12-09T11:33:28.438Z,90.94
2018-12-09T11:34:28.429Z,90.01
2018-12-09T11:35:28.418Z,88.17
2018-12-09T11:36:28.406Z,89.19
2018-12-09T11:37:28.427Z,89.40
2018-12-09T11:38:28.394Z,90.32
2018-12-09T11:39:28.376Z,88.95
2018-12-09T11:40:28.366Z,88.89
2018-12-09T11:41:28.356Z,87.92
2018-12-09T11:42:28.345Z,89.04
2018-12-09T11:43:28.350Z,88.47
2018-12-09T11:44:28.323Z,88.95
2018-12-09T11:45:28.315Z,88.27
2018-12-09T11:46:28.300Z,88.17
2018-12-09T11:47:28.289Z,87.30
2018-12-09T11:48:28.291Z,86.68
2018-12-09T11:49:28.267Z,87.20
2018-12-09T11:50:28.257Z,87.82
2018-12-09T11:51:28.258Z,87.40
2018-12-09T11:52:28.237Z,87.24
2018-12-09T11:53:28.243Z,86.32
2018-12-09T11:54:28.215Z,86.99
2018-12-09T11:55:28.204Z,86.48
2018-12-09T11:56:28.194Z,86.38
2018-12-09T11:57:28.185Z,86.79
2018-12-09T11:58:28.185Z,85.76
2018-12-09T11:59:28.164Z,86.27
2018-12-09T12:00:28.160Z,87.20
2018-12-09T12:01:28.139Z,85.76
2018-12-09T12:02:28.128Z,87.10
2018-12-09T12:03:28.131Z,86.58
2018-12-09T12:04:28.107Z,85.11
2018-12-09T12:05:28.097Z,85.31
2018-12-09T12:06:28.092Z,85.62
2018-12-09T12:07:28.086Z,84.69
2018-12-09T12:08:28.086Z,84.80
2018-12-09T12:09:28.069Z,84.80
2018-12-09T12:10:28.048Z,85.72
2018-12-09T12:11:28.047Z,85.11
2018-12-09T12:12:28.032Z,86.24
2018-12-09T12:13:28.039Z,85.31
2018-12-09T12:14:28.017Z,84.74
2018-12-09T12:15:27.990Z,84.74
2018-12-09T12:16:27.981Z,85.76
2018-12-09T12:17:27.974Z,85.14
2018-12-09T12:18:27.971Z,85.04
2018-12-09T12:19:27.955Z,85.86
2018-12-09T12:20:27.934Z,85.14
2018-12-09T12:21:27.926Z,84.39
2018-12-09T12:22:27.919Z,85.31
2018-12-09T12:23:27.929Z,85.31
2018-12-09T12:24:27.894Z,84.69
2018-12-09T12:25:27.881Z,85.31
2018-12-09T12:26:27.877Z,84.80
2018-12-09T12:27:27.859Z,85.00
2018-12-09T12:28:27.862Z,85.21
2018-12-09T12:29:27.838Z,85.31
2018-12-09T12:30:27.828Z,84.59
2018-12-09T12:31:27.830Z,85.72
2018-12-09T12:32:27.806Z,85.82
2018-12-09T12:33:27.807Z,84.49
2018-12-09T12:34:27.786Z,85.41
2018-12-09T12:35:27.775Z,85.21
2018-12-09T12:36:27.765Z,84.53
2018-12-09T12:37:27.763Z,85.11
2018-12-09T12:38:27.759Z,84.49
2018-12-09T12:39:27.730Z,84.80
2018-12-09T12:40:27.719Z,84.28
2018-12-09T12:41:27.709Z,83.83
2018-12-09T12:42:27.697Z,83.63
2018-12-09T12:43:27.708Z,83.63
2018-12-09T12:44:27.681Z,83.42
2018-12-09T12:45:27.669Z,84.55
2018-12-09T12:46:27.656Z,84.45
2018-12-09T12:47:27.645Z,83.53
2018-12-09T12:48:27.649Z,83.83
2018-12-09T12:49:27.623Z,84.49
2018-12-09T12:50:27.624Z,84.59
2018-12-09T12:51:27.605Z,84.39
2018-12-09T12:52:27.591Z,83.67